sensor_id;sensor_type;location;lat;lon;timestamp;P1;durP1;ratioP1;P2;durP2;ratioP2
17935;SDS011;9093;52.062;4.508;2023-07-31T00:01:13;13.40;;;2.95;;
17935;SDS011;9093;52.062;4.508;2023-07-31T00:03:53;13.90;;;3.15;;
17935;SDS011;9093;52.062;4.508;2023-07-31T00:06:34;13.95;;;2.70;;
17935;SDS011;9093;52.062;4.508;2023-07-31T00:09:14;17.20;;;3.17;;
17935;SDS011;9093;52.062;4.508;2023-07-31T00:11:54;16.05;;;2.97;;
17935;SDS011;9093;52.062;4.508;2023-07-31T00:14:35;15.65;;;3.45;;
17935;SDS011;9093;52.062;4.508;2023-07-31T00:17:17;11.45;;;3.40;;
17935;SDS011;9093;52.062;4.508;2023-07-31T00:19:58;19.33;;;3.50;;
17935;SDS011;9093;52.062;4.508;2023-07-31T00:22:38;18.30;;;3.22;;
17935;SDS011;9093;52.062;4.508;2023-07-31T00:25:18;16.83;;;3.40;;
17935;SDS011;9093;52.062;4.508;2023-07-31T00:27:59;16.45;;;3.15;;
17935;SDS011;9093;52.062;4.508;2023-07-31T00:30:39;12.63;;;2.80;;
17935;SDS011;9093;52.062;4.508;2023-07-31T00:33:19;14.35;;;2.60;;
17935;SDS011;9093;52.062;4.508;2023-07-31T00:36:00;8.55;;;2.53;;
17935;SDS011;9093;52.062;4.508;2023-07-31T00:38:40;11.10;;;2.70;;
17935;SDS011;9093;52.062;4.508;2023-07-31T00:41:20;10.77;;;3.13;;
17935;SDS011;9093;52.062;4.508;2023-07-31T00:44:01;14.98;;;2.40;;
17935;SDS011;9093;52.062;4.508;2023-07-31T00:46:41;12.35;;;2.38;;
17935;SDS011;9093;52.062;4.508;2023-07-31T00:49:22;12.52;;;3.63;;
17935;SDS011;9093;52.062;4.508;2023-07-31T00:52:02;10.75;;;2.72;;
17935;SDS011;9093;52.062;4.508;2023-07-31T00:54:43;10.45;;;3.42;;
17935;SDS011;9093;52.062;4.508;2023-07-31T00:57:24;12.02;;;2.58;;
17935;SDS011;9093;52.062;4.508;2023-07-31T01:00:04;11.00;;;3.33;;
17935;SDS011;9093;52.062;4.508;2023-07-31T01:02:45;11.88;;;3.05;;
17935;SDS011;9093;52.062;4.508;2023-07-31T01:05:36;12.68;;;3.40;;
17935;SDS011;9093;52.062;4.508;2023-07-31T01:08:37;10.73;;;3.20;;
17935;SDS011;9093;52.062;4.508;2023-07-31T01:11:26;13.35;;;2.80;;
17935;SDS011;9093;52.062;4.508;2023-07-31T01:14:08;6.30;;;2.55;;
17935;SDS011;9093;52.062;4.508;2023-07-31T01:16:49;14.00;;;2.92;;
17935;SDS011;9093;52.062;4.508;2023-07-31T01:19:29;8.25;;;2.70;;
17935;SDS011;9093;52.062;4.508;2023-07-31T01:28:04;12.07;;;3.17;;
17935;SDS011;9093;52.062;4.508;2023-07-31T01:30:48;10.82;;;2.65;;
17935;SDS011;9093;52.062;4.508;2023-07-31T01:33:28;10.05;;;2.60;;
17935;SDS011;9093;52.062;4.508;2023-07-31T01:36:09;13.32;;;3.20;;
17935;SDS011;9093;52.062;4.508;2023-07-31T01:38:51;12.02;;;3.08;;
17935;SDS011;9093;52.062;4.508;2023-07-31T01:41:31;21.88;;;3.80;;
17935;SDS011;9093;52.062;4.508;2023-07-31T01:44:11;9.27;;;2.92;;
17935;SDS011;9093;52.062;4.508;2023-07-31T01:46:52;13.10;;;3.17;;
17935;SDS011;9093;52.062;4.508;2023-07-31T01:49:32;8.90;;;3.25;;
17935;SDS011;9093;52.062;4.508;2023-07-31T01:52:12;13.30;;;3.77;;
17935;SDS011;9093;52.062;4.508;2023-07-31T01:54:53;12.45;;;2.72;;
17935;SDS011;9093;52.062;4.508;2023-07-31T01:57:33;17.35;;;3.70;;
17935;SDS011;9093;52.062;4.508;2023-07-31T02:00:13;20.00;;;3.25;;
17935;SDS011;9093;52.062;4.508;2023-07-31T02:02:54;13.15;;;3.05;;
17935;SDS011;9093;52.062;4.508;2023-07-31T02:05:34;16.48;;;2.85;;
17935;SDS011;9093;52.062;4.508;2023-07-31T02:08:15;13.52;;;2.50;;
17935;SDS011;9093;52.062;4.508;2023-07-31T02:10:56;14.90;;;2.67;;
17935;SDS011;9093;52.062;4.508;2023-07-31T02:13:36;14.07;;;2.72;;
17935;SDS011;9093;52.062;4.508;2023-07-31T02:16:16;12.93;;;2.40;;
17935;SDS011;9093;52.062;4.508;2023-07-31T02:18:56;13.00;;;3.23;;
17935;SDS011;9093;52.062;4.508;2023-07-31T02:21:37;18.55;;;4.03;;
17935;SDS011;9093;52.062;4.508;2023-07-31T02:24:17;22.13;;;3.20;;
17935;SDS011;9093;52.062;4.508;2023-07-31T02:26:57;17.73;;;4.03;;
17935;SDS011;9093;52.062;4.508;2023-07-31T02:29:37;14.43;;;3.63;;
17935;SDS011;9093;52.062;4.508;2023-07-31T02:32:18;16.40;;;2.97;;
17935;SDS011;9093;52.062;4.508;2023-07-31T02:34:58;9.95;;;3.08;;
17935;SDS011;9093;52.062;4.508;2023-07-31T02:37:38;14.85;;;3.38;;
17935;SDS011;9093;52.062;4.508;2023-07-31T02:40:19;20.42;;;3.25;;
17935;SDS011;9093;52.062;4.508;2023-07-31T02:42:59;17.05;;;3.55;;
17935;SDS011;9093;52.062;4.508;2023-07-31T02:45:39;13.55;;;3.42;;
17935;SDS011;9093;52.062;4.508;2023-07-31T02:48:19;16.88;;;2.83;;
17935;SDS011;9093;52.062;4.508;2023-07-31T02:51:00;11.45;;;2.90;;
17935;SDS011;9093;52.062;4.508;2023-07-31T02:53:40;21.00;;;3.75;;
17935;SDS011;9093;52.062;4.508;2023-07-31T02:56:20;11.57;;;3.37;;
17935;SDS011;9093;52.062;4.508;2023-07-31T02:59:01;9.88;;;2.50;;
17935;SDS011;9093;52.062;4.508;2023-07-31T03:01:41;17.00;;;3.55;;
17935;SDS011;9093;52.062;4.508;2023-07-31T03:04:21;11.47;;;3.77;;
17935;SDS011;9093;52.062;4.508;2023-07-31T03:07:02;13.93;;;2.85;;
17935;SDS011;9093;52.062;4.508;2023-07-31T03:09:42;17.30;;;3.28;;
17935;SDS011;9093;52.062;4.508;2023-07-31T03:12:23;19.10;;;3.38;;
17935;SDS011;9093;52.062;4.508;2023-07-31T03:15:03;16.63;;;3.17;;
17935;SDS011;9093;52.062;4.508;2023-07-31T03:17:44;19.63;;;3.63;;
17935;SDS011;9093;52.062;4.508;2023-07-31T03:20:24;14.73;;;3.35;;
17935;SDS011;9093;52.062;4.508;2023-07-31T03:23:04;9.50;;;3.08;;
17935;SDS011;9093;52.062;4.508;2023-07-31T03:26:00;15.07;;;2.70;;
17935;SDS011;9093;52.062;4.508;2023-07-31T03:28:45;13.32;;;3.47;;
17935;SDS011;9093;52.062;4.508;2023-07-31T03:31:25;9.87;;;3.17;;
17935;SDS011;9093;52.062;4.508;2023-07-31T03:34:06;20.52;;;2.97;;
17935;SDS011;9093;52.062;4.508;2023-07-31T03:36:46;15.98;;;3.47;;
17935;SDS011;9093;52.062;4.508;2023-07-31T03:39:26;20.13;;;3.05;;
17935;SDS011;9093;52.062;4.508;2023-07-31T03:42:07;11.63;;;2.77;;
17935;SDS011;9093;52.062;4.508;2023-07-31T03:44:47;14.95;;;3.60;;
17935;SDS011;9093;52.062;4.508;2023-07-31T03:47:27;16.77;;;3.08;;
17935;SDS011;9093;52.062;4.508;2023-07-31T03:50:08;15.75;;;3.38;;
17935;SDS011;9093;52.062;4.508;2023-07-31T03:52:48;17.92;;;3.03;;
17935;SDS011;9093;52.062;4.508;2023-07-31T03:55:28;17.45;;;3.40;;
17935;SDS011;9093;52.062;4.508;2023-07-31T03:58:09;12.80;;;3.13;;
17935;SDS011;9093;52.062;4.508;2023-07-31T04:00:49;11.77;;;2.65;;
17935;SDS011;9093;52.062;4.508;2023-07-31T04:03:29;14.43;;;2.33;;
17935;SDS011;9093;52.062;4.508;2023-07-31T04:06:10;12.85;;;2.72;;
17935;SDS011;9093;52.062;4.508;2023-07-31T04:08:50;3.72;;;1.55;;
17935;SDS011;9093;52.062;4.508;2023-07-31T04:11:30;7.15;;;1.85;;
17935;SDS011;9093;52.062;4.508;2023-07-31T04:14:11;4.90;;;1.52;;
17935;SDS011;9093;52.062;4.508;2023-07-31T04:16:51;5.53;;;1.95;;
17935;SDS011;9093;52.062;4.508;2023-07-31T04:19:32;9.80;;;1.40;;
17935;SDS011;9093;52.062;4.508;2023-07-31T04:22:12;10.13;;;1.60;;
17935;SDS011;9093;52.062;4.508;2023-07-31T04:24:52;2.38;;;1.33;;
17935;SDS011;9093;52.062;4.508;2023-07-31T04:27:33;5.40;;;1.63;;
17935;SDS011;9093;52.062;4.508;2023-07-31T04:30:13;2.03;;;1.30;;
17935;SDS011;9093;52.062;4.508;2023-07-31T04:32:54;1.80;;;0.80;;
17935;SDS011;9093;52.062;4.508;2023-07-31T04:35:34;5.05;;;1.17;;
17935;SDS011;9093;52.062;4.508;2023-07-31T04:38:14;21.85;;;1.42;;
17935;SDS011;9093;52.062;4.508;2023-07-31T04:40:54;7.72;;;1.27;;
17935;SDS011;9093;52.062;4.508;2023-07-31T04:43:35;2.97;;;0.90;;
17935;SDS011;9093;52.062;4.508;2023-07-31T04:46:15;4.55;;;1.10;;
17935;SDS011;9093;52.062;4.508;2023-07-31T04:48:55;5.10;;;1.15;;
17935;SDS011;9093;52.062;4.508;2023-07-31T04:51:36;2.75;;;1.50;;
17935;SDS011;9093;52.062;4.508;2023-07-31T04:54:17;3.53;;;0.73;;
17935;SDS011;9093;52.062;4.508;2023-07-31T04:56:57;2.30;;;1.50;;
17935;SDS011;9093;52.062;4.508;2023-07-31T04:59:37;5.05;;;1.50;;
17935;SDS011;9093;52.062;4.508;2023-07-31T05:02:17;3.83;;;1.40;;
17935;SDS011;9093;52.062;4.508;2023-07-31T05:04:58;2.35;;;1.30;;
17935;SDS011;9093;52.062;4.508;2023-07-31T05:07:38;3.72;;;1.65;;
17935;SDS011;9093;52.062;4.508;2023-07-31T05:10:18;1.63;;;1.25;;
17935;SDS011;9093;52.062;4.508;2023-07-31T05:12:59;3.05;;;1.65;;
17935;SDS011;9093;52.062;4.508;2023-07-31T05:15:40;3.63;;;1.20;;
17935;SDS011;9093;52.062;4.508;2023-07-31T05:18:21;3.85;;;1.63;;
17935;SDS011;9093;52.062;4.508;2023-07-31T05:21:01;3.88;;;1.60;;
17935;SDS011;9093;52.062;4.508;2023-07-31T05:23:42;2.83;;;1.52;;
17935;SDS011;9093;52.062;4.508;2023-07-31T05:26:22;2.55;;;1.45;;
17935;SDS011;9093;52.062;4.508;2023-07-31T05:29:02;3.15;;;1.50;;
17935;SDS011;9093;52.062;4.508;2023-07-31T05:31:43;3.50;;;1.42;;
17935;SDS011;9093;52.062;4.508;2023-07-31T05:34:23;3.17;;;1.20;;
17935;SDS011;9093;52.062;4.508;2023-07-31T05:37:03;3.15;;;1.40;;
17935;SDS011;9093;52.062;4.508;2023-07-31T05:39:44;7.70;;;1.25;;
17935;SDS011;9093;52.062;4.508;2023-07-31T05:42:25;5.40;;;1.20;;
17935;SDS011;9093;52.062;4.508;2023-07-31T05:45:06;4.23;;;1.47;;
17935;SDS011;9093;52.062;4.508;2023-07-31T05:47:47;1.73;;;1.00;;
17935;SDS011;9093;52.062;4.508;2023-07-31T05:50:27;1.65;;;1.02;;
17935;SDS011;9093;52.062;4.508;2023-07-31T05:53:07;12.25;;;1.17;;
17935;SDS011;9093;52.062;4.508;2023-07-31T05:55:48;1.70;;;0.80;;
17935;SDS011;9093;52.062;4.508;2023-07-31T05:58:28;1.70;;;0.60;;
17935;SDS011;9093;52.062;4.508;2023-07-31T06:01:08;3.08;;;1.00;;
17935;SDS011;9093;52.062;4.508;2023-07-31T06:03:49;1.33;;;0.90;;
17935;SDS011;9093;52.062;4.508;2023-07-31T06:06:29;1.23;;;0.77;;
17935;SDS011;9093;52.062;4.508;2023-07-31T06:09:09;2.33;;;0.82;;
17935;SDS011;9093;52.062;4.508;2023-07-31T06:11:49;2.27;;;0.70;;
17935;SDS011;9093;52.062;4.508;2023-07-31T06:14:30;2.13;;;0.73;;
17935;SDS011;9093;52.062;4.508;2023-07-31T06:17:10;1.15;;;0.80;;
17935;SDS011;9093;52.062;4.508;2023-07-31T06:19:50;1.55;;;0.60;;
17935;SDS011;9093;52.062;4.508;2023-07-31T06:22:31;0.85;;;0.47;;
17935;SDS011;9093;52.062;4.508;2023-07-31T06:25:11;1.00;;;0.60;;
17935;SDS011;9093;52.062;4.508;2023-07-31T06:27:52;1.20;;;0.70;;
17935;SDS011;9093;52.062;4.508;2023-07-31T06:30:32;1.23;;;0.77;;
17935;SDS011;9093;52.062;4.508;2023-07-31T06:33:12;1.02;;;0.65;;
17935;SDS011;9093;52.062;4.508;2023-07-31T06:35:53;1.40;;;0.40;;
17935;SDS011;9093;52.062;4.508;2023-07-31T06:38:33;2.88;;;0.40;;
17935;SDS011;9093;52.062;4.508;2023-07-31T06:41:13;0.77;;;0.43;;
17935;SDS011;9093;52.062;4.508;2023-07-31T06:43:54;2.10;;;0.57;;
17935;SDS011;9093;52.062;4.508;2023-07-31T06:46:34;1.17;;;0.60;;
17935;SDS011;9093;52.062;4.508;2023-07-31T06:49:14;0.90;;;0.40;;
17935;SDS011;9093;52.062;4.508;2023-07-31T06:54:37;0.57;;;0.33;;
17935;SDS011;9093;52.062;4.508;2023-07-31T06:57:18;0.98;;;0.50;;
17935;SDS011;9093;52.062;4.508;2023-07-31T06:59:58;0.50;;;0.30;;
17935;SDS011;9093;52.062;4.508;2023-07-31T07:02:38;2.35;;;0.50;;
17935;SDS011;9093;52.062;4.508;2023-07-31T07:05:19;1.10;;;0.45;;
17935;SDS011;9093;52.062;4.508;2023-07-31T07:07:59;0.77;;;0.38;;
17935;SDS011;9093;52.062;4.508;2023-07-31T07:10:39;0.43;;;0.20;;
17935;SDS011;9093;52.062;4.508;2023-07-31T07:13:20;0.40;;;0.28;;
17935;SDS011;9093;52.062;4.508;2023-07-31T07:16:01;0.60;;;0.35;;
17935;SDS011;9093;52.062;4.508;2023-07-31T07:18:42;1.20;;;0.38;;
17935;SDS011;9093;52.062;4.508;2023-07-31T07:21:22;0.40;;;0.20;;
17935;SDS011;9093;52.062;4.508;2023-07-31T07:24:02;0.50;;;0.30;;
17935;SDS011;9093;52.062;4.508;2023-07-31T07:26:43;1.35;;;0.30;;
17935;SDS011;9093;52.062;4.508;2023-07-31T07:29:23;0.40;;;0.10;;
17935;SDS011;9093;52.062;4.508;2023-07-31T07:32:04;0.45;;;0.20;;
17935;SDS011;9093;52.062;4.508;2023-07-31T07:34:45;0.50;;;0.15;;
17935;SDS011;9093;52.062;4.508;2023-07-31T07:37:25;0.50;;;0.30;;
17935;SDS011;9093;52.062;4.508;2023-07-31T07:40:05;1.20;;;0.60;;
17935;SDS011;9093;52.062;4.508;2023-07-31T07:42:46;1.23;;;0.35;;
17935;SDS011;9093;52.062;4.508;2023-07-31T07:45:27;0.60;;;0.30;;
17935;SDS011;9093;52.062;4.508;2023-07-31T07:48:07;1.00;;;0.40;;
17935;SDS011;9093;52.062;4.508;2023-07-31T07:50:48;1.40;;;0.40;;
17935;SDS011;9093;52.062;4.508;2023-07-31T07:53:29;0.88;;;0.60;;
17935;SDS011;9093;52.062;4.508;2023-07-31T07:56:09;2.30;;;0.50;;
17935;SDS011;9093;52.062;4.508;2023-07-31T07:58:49;1.88;;;0.38;;
17935;SDS011;9093;52.062;4.508;2023-07-31T08:01:30;1.42;;;0.50;;
17935;SDS011;9093;52.062;4.508;2023-07-31T08:04:10;1.05;;;0.50;;
17935;SDS011;9093;52.062;4.508;2023-07-31T08:06:51;1.67;;;0.57;;
17935;SDS011;9093;52.062;4.508;2023-07-31T08:09:31;3.58;;;0.70;;
17935;SDS011;9093;52.062;4.508;2023-07-31T08:12:11;1.88;;;0.70;;
17935;SDS011;9093;52.062;4.508;2023-07-31T08:14:51;7.00;;;1.00;;
17935;SDS011;9093;52.062;4.508;2023-07-31T08:17:32;5.40;;;1.08;;
17935;SDS011;9093;52.062;4.508;2023-07-31T08:20:12;7.93;;;1.20;;
17935;SDS011;9093;52.062;4.508;2023-07-31T08:22:52;4.55;;;1.20;;
17935;SDS011;9093;52.062;4.508;2023-07-31T08:25:34;5.95;;;0.93;;
17935;SDS011;9093;52.062;4.508;2023-07-31T08:28:15;5.47;;;1.20;;
17935;SDS011;9093;52.062;4.508;2023-07-31T08:30:56;4.57;;;1.05;;
17935;SDS011;9093;52.062;4.508;2023-07-31T08:33:36;6.50;;;1.17;;
17935;SDS011;9093;52.062;4.508;2023-07-31T08:36:17;13.27;;;1.38;;
17935;SDS011;9093;52.062;4.508;2023-07-31T08:38:57;11.07;;;1.08;;
17935;SDS011;9093;52.062;4.508;2023-07-31T08:41:38;16.77;;;1.55;;
17935;SDS011;9093;52.062;4.508;2023-07-31T08:44:19;9.70;;;1.42;;
17935;SDS011;9093;52.062;4.508;2023-07-31T08:47:00;5.68;;;1.05;;
17935;SDS011;9093;52.062;4.508;2023-07-31T08:49:41;4.57;;;1.40;;
17935;SDS011;9093;52.062;4.508;2023-07-31T08:52:22;5.10;;;1.50;;
17935;SDS011;9093;52.062;4.508;2023-07-31T08:55:04;4.78;;;1.58;;
17935;SDS011;9093;52.062;4.508;2023-07-31T08:57:45;6.60;;;1.48;;
17935;SDS011;9093;52.062;4.508;2023-07-31T09:00:26;2.72;;;0.95;;
17935;SDS011;9093;52.062;4.508;2023-07-31T09:03:14;3.83;;;0.90;;
17935;SDS011;9093;52.062;4.508;2023-07-31T09:05:56;11.02;;;1.63;;
17935;SDS011;9093;52.062;4.508;2023-07-31T09:08:37;5.93;;;1.50;;
17935;SDS011;9093;52.062;4.508;2023-07-31T09:11:22;5.40;;;1.73;;
17935;SDS011;9093;52.062;4.508;2023-07-31T09:19:34;7.22;;;1.15;;
17935;SDS011;9093;52.062;4.508;2023-07-31T09:22:17;4.82;;;1.17;;
17935;SDS011;9093;52.062;4.508;2023-07-31T09:27:57;2.50;;;1.00;;
17935;SDS011;9093;52.062;4.508;2023-07-31T09:33:28;1.63;;;0.93;;
17935;SDS011;9093;52.062;4.508;2023-07-31T09:36:08;2.45;;;0.90;;
17935;SDS011;9093;52.062;4.508;2023-07-31T09:38:48;3.43;;;0.80;;
17935;SDS011;9093;52.062;4.508;2023-07-31T09:41:29;2.05;;;1.35;;
17935;SDS011;9093;52.062;4.508;2023-07-31T09:44:10;7.72;;;1.10;;
17935;SDS011;9093;52.062;4.508;2023-07-31T09:46:51;7.07;;;1.10;;
17935;SDS011;9093;52.062;4.508;2023-07-31T09:49:31;4.40;;;1.23;;
17935;SDS011;9093;52.062;4.508;2023-07-31T09:52:11;3.42;;;1.05;;
17935;SDS011;9093;52.062;4.508;2023-07-31T09:54:53;5.40;;;1.35;;
17935;SDS011;9093;52.062;4.508;2023-07-31T09:57:34;3.60;;;1.00;;
17935;SDS011;9093;52.062;4.508;2023-07-31T10:00:26;9.95;;;1.45;;
17935;SDS011;9093;52.062;4.508;2023-07-31T10:03:08;9.03;;;1.33;;
17935;SDS011;9093;52.062;4.508;2023-07-31T10:05:50;2.95;;;1.00;;
17935;SDS011;9093;52.062;4.508;2023-07-31T10:08:32;2.15;;;1.10;;
17935;SDS011;9093;52.062;4.508;2023-07-31T10:11:16;5.30;;;1.15;;
17935;SDS011;9093;52.062;4.508;2023-07-31T10:13:57;7.38;;;1.60;;
17935;SDS011;9093;52.062;4.508;2023-07-31T10:16:38;4.68;;;1.33;;
17935;SDS011;9093;52.062;4.508;2023-07-31T10:19:19;11.70;;;1.30;;
17935;SDS011;9093;52.062;4.508;2023-07-31T10:22:00;4.13;;;1.20;;
17935;SDS011;9093;52.062;4.508;2023-07-31T10:24:43;2.75;;;1.30;;
17935;SDS011;9093;52.062;4.508;2023-07-31T10:27:23;4.38;;;1.45;;
17935;SDS011;9093;52.062;4.508;2023-07-31T10:30:04;8.75;;;1.50;;
17935;SDS011;9093;52.062;4.508;2023-07-31T10:32:47;10.70;;;2.28;;
17935;SDS011;9093;52.062;4.508;2023-07-31T10:35:30;9.13;;;2.05;;
17935;SDS011;9093;52.062;4.508;2023-07-31T10:38:10;4.50;;;1.45;;
17935;SDS011;9093;52.062;4.508;2023-07-31T10:40:51;3.72;;;0.90;;
17935;SDS011;9093;52.062;4.508;2023-07-31T10:43:32;8.70;;;1.07;;
17935;SDS011;9093;52.062;4.508;2023-07-31T10:46:13;10.15;;;1.70;;
17935;SDS011;9093;52.062;4.508;2023-07-31T10:48:57;8.30;;;1.23;;
17935;SDS011;9093;52.062;4.508;2023-07-31T10:51:39;2.05;;;1.13;;
17935;SDS011;9093;52.062;4.508;2023-07-31T10:54:20;6.70;;;1.02;;
17935;SDS011;9093;52.062;4.508;2023-07-31T10:57:00;9.63;;;1.23;;
17935;SDS011;9093;52.062;4.508;2023-07-31T10:59:41;7.32;;;0.88;;
17935;SDS011;9093;52.062;4.508;2023-07-31T11:02:25;7.07;;;1.52;;
17935;SDS011;9093;52.062;4.508;2023-07-31T11:05:08;2.17;;;1.20;;
17935;SDS011;9093;52.062;4.508;2023-07-31T11:07:49;3.58;;;1.02;;
17935;SDS011;9093;52.062;4.508;2023-07-31T11:10:29;5.28;;;1.20;;
17935;SDS011;9093;52.062;4.508;2023-07-31T11:13:10;8.48;;;1.50;;
17935;SDS011;9093;52.062;4.508;2023-07-31T11:15:50;7.88;;;1.52;;
17935;SDS011;9093;52.062;4.508;2023-07-31T11:18:31;8.87;;;1.30;;
17935;SDS011;9093;52.062;4.508;2023-07-31T11:21:18;8.55;;;2.10;;
17935;SDS011;9093;52.062;4.508;2023-07-31T11:24:00;9.27;;;2.00;;
17935;SDS011;9093;52.062;4.508;2023-07-31T11:26:53;2.70;;;1.02;;
17935;SDS011;9093;52.062;4.508;2023-07-31T11:29:33;4.13;;;1.05;;
17935;SDS011;9093;52.062;4.508;2023-07-31T11:32:17;7.65;;;1.00;;
17935;SDS011;9093;52.062;4.508;2023-07-31T11:34:58;3.40;;;1.17;;
17935;SDS011;9093;52.062;4.508;2023-07-31T11:37:39;4.45;;;0.77;;
17935;SDS011;9093;52.062;4.508;2023-07-31T11:40:22;5.65;;;1.08;;
17935;SDS011;9093;52.062;4.508;2023-07-31T11:43:08;4.07;;;0.85;;
17935;SDS011;9093;52.062;4.508;2023-07-31T11:45:50;5.38;;;0.88;;
17935;SDS011;9093;52.062;4.508;2023-07-31T11:48:33;4.60;;;1.07;;
17935;SDS011;9093;52.062;4.508;2023-07-31T11:51:16;4.05;;;1.02;;
17935;SDS011;9093;52.062;4.508;2023-07-31T11:53:57;6.68;;;1.38;;
17935;SDS011;9093;52.062;4.508;2023-07-31T11:56:41;5.63;;;1.20;;
17935;SDS011;9093;52.062;4.508;2023-07-31T11:59:21;8.30;;;1.17;;
17935;SDS011;9093;52.062;4.508;2023-07-31T12:02:02;8.13;;;0.80;;
17935;SDS011;9093;52.062;4.508;2023-07-31T12:04:42;2.25;;;1.10;;
17935;SDS011;9093;52.062;4.508;2023-07-31T12:07:23;7.90;;;1.13;;
17935;SDS011;9093;52.062;4.508;2023-07-31T12:10:04;3.53;;;0.57;;
17935;SDS011;9093;52.062;4.508;2023-07-31T12:12:44;2.85;;;0.90;;
17935;SDS011;9093;52.062;4.508;2023-07-31T12:15:56;2.83;;;1.02;;
17935;SDS011;9093;52.062;4.508;2023-07-31T12:18:37;2.10;;;0.90;;
17935;SDS011;9093;52.062;4.508;2023-07-31T12:21:19;3.60;;;0.85;;
17935;SDS011;9093;52.062;4.508;2023-07-31T12:24:01;5.20;;;1.20;;
17935;SDS011;9093;52.062;4.508;2023-07-31T12:26:42;3.25;;;0.80;;
17935;SDS011;9093;52.062;4.508;2023-07-31T12:29:35;4.85;;;1.00;;
17935;SDS011;9093;52.062;4.508;2023-07-31T12:32:22;7.07;;;1.13;;
17935;SDS011;9093;52.062;4.508;2023-07-31T12:35:08;6.53;;;1.58;;
17935;SDS011;9093;52.062;4.508;2023-07-31T12:37:48;4.13;;;0.88;;
17935;SDS011;9093;52.062;4.508;2023-07-31T12:40:29;4.15;;;0.82;;
17935;SDS011;9093;52.062;4.508;2023-07-31T12:43:09;1.88;;;1.00;;
17935;SDS011;9093;52.062;4.508;2023-07-31T12:45:49;3.25;;;0.80;;
17935;SDS011;9093;52.062;4.508;2023-07-31T12:48:31;4.50;;;1.08;;
17935;SDS011;9093;52.062;4.508;2023-07-31T12:51:11;4.22;;;1.08;;
17935;SDS011;9093;52.062;4.508;2023-07-31T12:53:52;3.97;;;1.25;;
17935;SDS011;9093;52.062;4.508;2023-07-31T12:56:32;4.80;;;0.80;;
17935;SDS011;9093;52.062;4.508;2023-07-31T12:59:12;2.75;;;0.90;;
17935;SDS011;9093;52.062;4.508;2023-07-31T13:01:54;6.75;;;0.88;;
17935;SDS011;9093;52.062;4.508;2023-07-31T13:04:34;6.63;;;0.85;;
17935;SDS011;9093;52.062;4.508;2023-07-31T13:07:14;5.07;;;0.80;;
17935;SDS011;9093;52.062;4.508;2023-07-31T13:09:55;2.45;;;0.70;;
17935;SDS011;9093;52.062;4.508;2023-07-31T13:12:35;1.43;;;0.73;;
17935;SDS011;9093;52.062;4.508;2023-07-31T13:15:15;1.25;;;0.75;;
17935;SDS011;9093;52.062;4.508;2023-07-31T13:17:56;1.85;;;0.70;;
17935;SDS011;9093;52.062;4.508;2023-07-31T13:20:36;2.58;;;0.60;;
17935;SDS011;9093;52.062;4.508;2023-07-31T13:23:17;1.17;;;0.80;;
17935;SDS011;9093;52.062;4.508;2023-07-31T13:25:57;2.58;;;1.10;;
17935;SDS011;9093;52.062;4.508;2023-07-31T13:28:37;1.17;;;0.88;;
17935;SDS011;9093;52.062;4.508;2023-07-31T13:31:18;2.42;;;0.80;;
17935;SDS011;9093;52.062;4.508;2023-07-31T13:33:58;1.13;;;0.83;;
17935;SDS011;9093;52.062;4.508;2023-07-31T13:36:38;2.10;;;0.70;;
17935;SDS011;9093;52.062;4.508;2023-07-31T13:39:18;5.88;;;1.00;;
17935;SDS011;9093;52.062;4.508;2023-07-31T13:41:59;1.63;;;0.80;;
17935;SDS011;9093;52.062;4.508;2023-07-31T13:44:40;1.52;;;0.70;;
17935;SDS011;9093;52.062;4.508;2023-07-31T13:47:21;1.42;;;0.63;;
17935;SDS011;9093;52.062;4.508;2023-07-31T13:50:01;2.35;;;0.50;;
17935;SDS011;9093;52.062;4.508;2023-07-31T13:52:42;0.70;;;0.40;;
17935;SDS011;9093;52.062;4.508;2023-07-31T13:55:22;0.90;;;0.50;;
17935;SDS011;9093;52.062;4.508;2023-07-31T13:58:03;0.85;;;0.60;;
17935;SDS011;9093;52.062;4.508;2023-07-31T14:00:43;2.20;;;0.53;;
17935;SDS011;9093;52.062;4.508;2023-07-31T14:03:23;1.13;;;0.40;;
17935;SDS011;9093;52.062;4.508;2023-07-31T14:06:04;4.00;;;0.45;;
17935;SDS011;9093;52.062;4.508;2023-07-31T14:08:44;1.48;;;0.50;;
17935;SDS011;9093;52.062;4.508;2023-07-31T14:11:24;0.60;;;0.20;;
17935;SDS011;9093;52.062;4.508;2023-07-31T14:14:04;0.60;;;0.30;;
17935;SDS011;9093;52.062;4.508;2023-07-31T14:16:45;2.80;;;0.30;;
17935;SDS011;9093;52.062;4.508;2023-07-31T14:19:25;2.33;;;0.40;;
17935;SDS011;9093;52.062;4.508;2023-07-31T14:22:05;0.55;;;0.22;;
17935;SDS011;9093;52.062;4.508;2023-07-31T14:24:46;1.67;;;0.40;;
17935;SDS011;9093;52.062;4.508;2023-07-31T14:27:26;0.70;;;0.20;;
17935;SDS011;9093;52.062;4.508;2023-07-31T14:30:06;0.45;;;0.20;;
17935;SDS011;9093;52.062;4.508;2023-07-31T14:32:47;0.70;;;0.40;;
17935;SDS011;9093;52.062;4.508;2023-07-31T14:35:28;0.90;;;0.40;;
17935;SDS011;9093;52.062;4.508;2023-07-31T14:38:08;0.60;;;0.40;;
17935;SDS011;9093;52.062;4.508;2023-07-31T14:40:48;0.68;;;0.25;;
17935;SDS011;9093;52.062;4.508;2023-07-31T14:43:29;1.77;;;0.40;;
17935;SDS011;9093;52.062;4.508;2023-07-31T14:46:10;0.63;;;0.40;;
17935;SDS011;9093;52.062;4.508;2023-07-31T14:48:50;0.73;;;0.30;;
17935;SDS011;9093;52.062;4.508;2023-07-31T14:51:30;0.50;;;0.20;;
17935;SDS011;9093;52.062;4.508;2023-07-31T14:54:10;0.73;;;0.30;;
17935;SDS011;9093;52.062;4.508;2023-07-31T14:56:51;1.15;;;0.40;;
17935;SDS011;9093;52.062;4.508;2023-07-31T14:59:31;0.65;;;0.22;;
17935;SDS011;9093;52.062;4.508;2023-07-31T15:02:11;0.50;;;0.40;;
17935;SDS011;9093;52.062;4.508;2023-07-31T15:04:52;1.02;;;0.38;;
17935;SDS011;9093;52.062;4.508;2023-07-31T15:07:32;0.60;;;0.40;;
17935;SDS011;9093;52.062;4.508;2023-07-31T15:10:13;1.42;;;0.30;;
17935;SDS011;9093;52.062;4.508;2023-07-31T15:12:54;0.40;;;0.20;;
17935;SDS011;9093;52.062;4.508;2023-07-31T15:15:34;0.57;;;0.30;;
17935;SDS011;9093;52.062;4.508;2023-07-31T15:18:14;0.50;;;0.17;;
17935;SDS011;9093;52.062;4.508;2023-07-31T15:20:54;0.90;;;0.30;;
17935;SDS011;9093;52.062;4.508;2023-07-31T15:23:35;0.88;;;0.40;;
17935;SDS011;9093;52.062;4.508;2023-07-31T15:26:15;0.68;;;0.30;;
17935;SDS011;9093;52.062;4.508;2023-07-31T15:28:57;0.53;;;0.27;;
17935;SDS011;9093;52.062;4.508;2023-07-31T15:31:41;0.80;;;0.35;;
17935;SDS011;9093;52.062;4.508;2023-07-31T15:34:22;0.68;;;0.50;;
17935;SDS011;9093;52.062;4.508;2023-07-31T15:37:02;2.28;;;0.60;;
17935;SDS011;9093;52.062;4.508;2023-07-31T15:39:43;0.60;;;0.38;;
17935;SDS011;9093;52.062;4.508;2023-07-31T15:42:23;0.60;;;0.50;;
17935;SDS011;9093;52.062;4.508;2023-07-31T15:45:04;0.80;;;0.60;;
17935;SDS011;9093;52.062;4.508;2023-07-31T15:47:44;0.57;;;0.32;;
17935;SDS011;9093;52.062;4.508;2023-07-31T15:50:25;0.98;;;0.40;;
17935;SDS011;9093;52.062;4.508;2023-07-31T15:53:05;0.70;;;0.40;;
17935;SDS011;9093;52.062;4.508;2023-07-31T15:55:45;0.55;;;0.32;;
17935;SDS011;9093;52.062;4.508;2023-07-31T15:58:26;0.80;;;0.47;;
17935;SDS011;9093;52.062;4.508;2023-07-31T16:01:07;1.20;;;0.43;;
17935;SDS011;9093;52.062;4.508;2023-07-31T16:03:48;0.50;;;0.30;;
17935;SDS011;9093;52.062;4.508;2023-07-31T16:06:29;0.70;;;0.30;;
17935;SDS011;9093;52.062;4.508;2023-07-31T16:09:09;0.40;;;0.25;;
17935;SDS011;9093;52.062;4.508;2023-07-31T16:11:50;0.73;;;0.38;;
17935;SDS011;9093;52.062;4.508;2023-07-31T16:14:30;0.73;;;0.40;;
17935;SDS011;9093;52.062;4.508;2023-07-31T16:17:10;0.60;;;0.30;;
17935;SDS011;9093;52.062;4.508;2023-07-31T16:19:50;2.88;;;0.40;;
17935;SDS011;9093;52.062;4.508;2023-07-31T16:22:31;0.50;;;0.40;;
17935;SDS011;9093;52.062;4.508;2023-07-31T16:25:12;0.80;;;0.50;;
17935;SDS011;9093;52.062;4.508;2023-07-31T16:27:52;1.50;;;0.60;;
17935;SDS011;9093;52.062;4.508;2023-07-31T16:30:32;1.05;;;0.38;;
17935;SDS011;9093;52.062;4.508;2023-07-31T16:33:13;3.28;;;0.55;;
17935;SDS011;9093;52.062;4.508;2023-07-31T16:35:55;9.45;;;0.80;;
17935;SDS011;9093;52.062;4.508;2023-07-31T16:38:35;4.73;;;1.00;;
17935;SDS011;9093;52.062;4.508;2023-07-31T16:41:15;1.73;;;0.70;;